createdAt,value
2017-06-17T00:02:20.399Z,4.27
2017-06-17T00:04:48.671Z,4.70
2017-06-17T00:07:16.911Z,4.40
2017-06-17T00:09:45.154Z,4.73
2017-06-17T00:12:13.419Z,4.50
2017-06-17T00:14:41.660Z,4.70
2017-06-17T00:17:09.895Z,4.07
2017-06-17T00:19:38.943Z,4.80
2017-06-17T00:22:07.179Z,4.63
2017-06-17T00:24:35.418Z,4.40
2017-06-17T00:27:03.984Z,4.50
2017-06-17T00:29:32.223Z,4.20
2017-06-17T00:32:01.225Z,4.40
2017-06-17T00:34:29.486Z,4.63
2017-06-17T00:36:57.726Z,4.37
2017-06-17T00:39:25.982Z,4.50
2017-06-17T00:41:55.019Z,4.40
2017-06-17T00:44:23.291Z,3.80
2017-06-17T00:46:51.530Z,4.00
2017-06-17T00:49:19.851Z,4.50
2017-06-17T00:51:48.097Z,4.33
2017-06-17T00:54:16.370Z,3.80
2017-06-17T00:56:44.646Z,2.83
2017-06-17T00:59:12.893Z,3.40
2017-06-17T01:01:41.123Z,2.93
2017-06-17T01:04:10.511Z,3.13
2017-06-17T01:06:39.519Z,3.37
2017-06-17T01:09:07.754Z,3.07
2017-06-17T01:11:36.799Z,3.60
2017-06-17T01:14:05.042Z,2.70
2017-06-17T01:16:33.275Z,2.80
2017-06-17T01:19:01.548Z,3.33
2017-06-17T01:21:29.791Z,2.70
2017-06-17T01:23:58.030Z,2.93
2017-06-17T01:26:27.082Z,2.50
2017-06-17T01:28:55.320Z,2.70
2017-06-17T01:31:23.563Z,2.70
2017-06-17T01:33:51.836Z,2.47
2017-06-17T01:36:20.071Z,2.67
2017-06-17T01:38:48.307Z,2.30
2017-06-17T01:41:16.971Z,2.50
2017-06-17T01:43:45.974Z,2.47
2017-06-17T01:46:14.215Z,2.20
2017-06-17T01:48:42.478Z,2.43
2017-06-17T01:51:10.719Z,1.90
2017-06-17T01:53:39.723Z,2.20
2017-06-17T01:56:07.990Z,2.23
2017-06-17T01:58:36.226Z,2.30
2017-06-17T02:01:04.462Z,1.83
2017-06-17T02:03:32.731Z,1.70
2017-06-17T02:06:01.736Z,1.90
2017-06-17T02:08:29.979Z,2.03
2017-06-17T02:10:59.011Z,2.50
2017-06-17T02:13:27.242Z,1.70
2017-06-17T02:15:55.483Z,2.00
2017-06-17T02:18:24.130Z,1.90
2017-06-17T02:20:52.950Z,2.10
2017-06-17T02:23:21.183Z,2.07
2017-06-17T02:25:49.447Z,2.10
2017-06-17T02:28:17.682Z,1.70
2017-06-17T02:30:46.691Z,1.60
2017-06-17T02:33:14.979Z,2.03
2017-06-17T02:35:43.221Z,1.90
2017-06-17T02:38:11.458Z,2.00
2017-06-17T02:40:39.734Z,1.80
2017-06-17T02:43:09.422Z,2.20
2017-06-17T02:45:37.658Z,1.60
2017-06-17T02:48:06.691Z,1.87
2017-06-17T02:50:34.926Z,1.90
2017-06-17T02:53:03.171Z,1.60
2017-06-17T02:55:31.810Z,1.53
2017-06-17T02:58:00.044Z,1.53
2017-06-17T03:00:28.287Z,1.50
2017-06-17T03:02:56.558Z,1.80
2017-06-17T03:05:24.802Z,1.77
2017-06-17T03:07:53.035Z,1.97
2017-06-17T03:10:21.307Z,1.90
2017-06-17T03:12:49.546Z,1.20
2017-06-17T03:15:17.780Z,1.50
2017-06-17T03:17:46.048Z,1.60
2017-06-17T03:20:15.055Z,1.60
2017-06-17T03:22:43.291Z,1.50
2017-06-17T03:25:12.326Z,1.60
2017-06-17T03:27:40.574Z,1.37
2017-06-17T03:30:08.803Z,1.63
2017-06-17T03:32:37.447Z,1.50
2017-06-17T03:35:06.451Z,1.30
2017-06-17T03:37:34.687Z,1.70
2017-06-17T03:40:03.751Z,1.47
2017-06-17T03:42:31.987Z,1.30
2017-06-17T03:45:00.233Z,1.27
2017-06-17T03:47:28.511Z,1.37
2017-06-17T03:49:56.747Z,1.57
2017-06-17T03:52:24.995Z,1.43
2017-06-17T03:54:53.259Z,1.40
2017-06-17T03:57:21.502Z,1.20
2017-06-17T03:59:49.747Z,1.40
2017-06-17T04:02:18.015Z,1.20
2017-06-17T04:04:46.256Z,1.70
2017-06-17T04:07:15.265Z,1.20
2017-06-17T04:09:43.899Z,1.30
2017-06-17T04:12:12.903Z,1.40
2017-06-17T04:14:41.138Z,1.53
2017-06-17T04:17:10.175Z,1.30
2017-06-17T04:19:38.411Z,1.20
2017-06-17T04:22:06.655Z,1.20
2017-06-17T04:24:34.919Z,1.20
2017-06-17T04:27:03.162Z,1.30
2017-06-17T04:29:32.159Z,1.40
2017-06-17T04:32:00.431Z,1.40
2017-06-17T04:34:28.671Z,1.40
2017-06-17T04:36:56.903Z,1.50
2017-06-17T04:39:25.939Z,1.57
2017-06-17T04:41:54.177Z,1.30
2017-06-17T04:44:22.418Z,1.30
2017-06-17T04:46:51.017Z,1.30
2017-06-17T04:49:19.938Z,1.47
2017-06-17T04:51:48.943Z,1.20
2017-06-17T04:54:17.239Z,1.60
2017-06-17T04:56:45.487Z,1.40
2017-06-17T04:59:13.726Z,1.57
2017-06-17T05:01:41.999Z,1.53
2017-06-17T05:04:10.230Z,1.40
2017-06-17T05:06:38.474Z,1.53
2017-06-17T05:09:07.510Z,1.07
2017-06-17T05:11:35.758Z,1.30
2017-06-17T05:14:04.003Z,1.40
2017-06-17T05:16:32.271Z,1.50
2017-06-17T05:19:00.511Z,1.60
2017-06-17T05:21:28.747Z,1.43
2017-06-17T05:23:58.141Z,1.40
2017-06-17T05:26:27.139Z,1.33
2017-06-17T05:28:55.382Z,1.50
2017-06-17T05:31:24.411Z,1.37
2017-06-17T05:33:52.647Z,1.20
2017-06-17T05:36:20.695Z,1.17
2017-06-17T05:38:48.779Z,1.10
2017-06-17T05:41:17.017Z,1.17
2017-06-17T05:43:45.062Z,1.20
2017-06-17T05:46:13.327Z,1.30
2017-06-17T05:48:41.563Z,1.60
2017-06-17T05:51:10.562Z,1.60
2017-06-17T05:53:38.831Z,1.53
2017-06-17T05:56:07.070Z,1.90
2017-06-17T05:58:35.306Z,2.20
2017-06-17T06:01:04.691Z,2.30
2017-06-17T06:03:33.507Z,3.20
2017-06-17T06:06:01.754Z,3.13
2017-06-17T06:08:30.022Z,2.90
2017-06-17T06:10:58.303Z,2.90
2017-06-17T06:13:26.539Z,3.47
2017-06-17T06:15:54.806Z,2.90
2017-06-17T06:18:23.043Z,3.40
2017-06-17T06:20:51.286Z,2.70
2017-06-17T06:23:20.324Z,3.63
2017-06-17T06:25:48.567Z,3.33
2017-06-17T06:28:16.807Z,3.10
2017-06-17T06:30:45.076Z,3.07
2017-06-17T06:33:13.322Z,3.40
2017-06-17T06:35:41.554Z,3.13
2017-06-17T06:38:10.583Z,2.30
2017-06-17T06:40:38.822Z,2.50
2017-06-17T06:43:07.063Z,2.30
2017-06-17T06:45:36.102Z,2.53
2017-06-17T06:48:04.346Z,2.53
2017-06-17T06:50:32.583Z,2.03
2017-06-17T06:53:00.844Z,2.20
2017-06-17T06:55:29.078Z,2.10
2017-06-17T06:57:57.318Z,2.50
2017-06-17T07:00:26.356Z,2.40
2017-06-17T07:02:54.590Z,2.20
2017-06-17T07:05:22.835Z,2.20
2017-06-17T07:07:51.111Z,2.20
2017-06-17T07:10:19.351Z,2.47
2017-06-17T07:12:48.351Z,2.30
2017-06-17T07:15:16.614Z,1.93
2017-06-17T07:17:44.862Z,2.47
2017-06-17T07:20:13.099Z,1.93
2017-06-17T07:22:42.129Z,2.03
2017-06-17T07:25:10.364Z,1.77
2017-06-17T07:27:38.599Z,2.00
2017-06-17T07:30:07.463Z,1.80
2017-06-17T07:32:36.459Z,1.73
2017-06-17T07:35:04.726Z,1.97
2017-06-17T07:37:32.990Z,1.80
2017-06-17T07:40:01.227Z,1.90
2017-06-17T07:42:30.234Z,2.00
2017-06-17T07:44:58.503Z,1.90
2017-06-17T07:47:26.738Z,1.83
2017-06-17T07:49:54.982Z,1.70
2017-06-17T07:52:23.246Z,1.93
2017-06-17T07:54:51.493Z,1.80
2017-06-17T07:57:20.497Z,1.60
2017-06-17T07:59:48.754Z,1.80
2017-06-17T08:02:16.991Z,1.60
2017-06-17T08:04:46.002Z,1.70
2017-06-17T08:07:14.627Z,2.20
2017-06-17T08:09:43.635Z,1.97
2017-06-17T08:12:11.889Z,2.03
2017-06-17T08:14:40.163Z,2.23
2017-06-17T08:17:08.405Z,1.77
2017-06-17T08:19:36.642Z,2.10
2017-06-17T08:22:05.675Z,2.07
2017-06-17T08:24:33.938Z,1.77
2017-06-17T08:27:02.166Z,1.80
2017-06-17T08:29:30.443Z,1.83
2017-06-17T08:31:58.683Z,1.90
2017-06-17T08:34:26.918Z,1.80
2017-06-17T08:36:55.197Z,1.93
2017-06-17T08:39:23.434Z,1.90
2017-06-17T08:41:52.448Z,1.70
2017-06-17T08:44:20.711Z,2.20
2017-06-17T08:46:48.955Z,1.73
2017-06-17T08:49:17.195Z,1.87
2017-06-17T08:51:46.235Z,1.70
2017-06-17T08:54:14.478Z,1.80
2017-06-17T08:56:42.715Z,1.87
2017-06-17T08:59:11.007Z,1.73
2017-06-17T09:01:39.242Z,1.60
2017-06-17T09:04:07.483Z,1.70
2017-06-17T09:06:35.751Z,1.80
2017-06-17T09:09:03.546Z,1.53
2017-06-17T09:11:31.791Z,1.60
2017-06-17T09:14:00.054Z,1.80
2017-06-17T09:16:28.315Z,1.70
2017-06-17T09:18:56.554Z,1.47
2017-06-17T09:21:24.827Z,1.53
2017-06-17T09:23:53.065Z,2.00
2017-06-17T09:26:21.306Z,1.70
2017-06-17T09:28:49.571Z,1.80
2017-06-17T09:31:17.823Z,1.97
2017-06-17T09:33:46.837Z,1.80
2017-06-17T09:36:15.125Z,2.10
2017-06-17T09:38:43.418Z,1.83
2017-06-17T09:41:13.137Z,1.80
2017-06-17T09:43:41.496Z,1.63
2017-06-17T09:46:09.749Z,1.57
2017-06-17T09:48:37.984Z,1.57
2017-06-17T09:51:07.059Z,1.60
2017-06-17T09:53:36.063Z,1.70
2017-06-17T09:56:04.299Z,1.70
2017-06-17T09:58:33.336Z,1.60
2017-06-17T10:01:01.571Z,1.80
2017-06-17T10:03:29.807Z,1.40
2017-06-17T10:05:58.152Z,1.57
2017-06-17T10:08:26.442Z,1.67
2017-06-17T10:10:54.692Z,1.70
2017-06-17T10:13:23.165Z,1.53
2017-06-17T10:15:51.822Z,1.40
2017-06-17T10:18:20.128Z,1.40
2017-06-17T10:20:54.422Z,1.67
2017-06-17T10:23:22.870Z,1.50
2017-06-17T10:25:51.236Z,1.67
2017-06-17T10:28:19.702Z,1.50
2017-06-17T10:30:48.409Z,1.57
2017-06-17T10:33:16.969Z,1.50
2017-06-17T10:35:45.630Z,1.50
2017-06-17T10:38:14.480Z,1.40
2017-06-17T10:40:42.951Z,1.40
2017-06-17T10:43:11.639Z,1.30
2017-06-17T10:45:40.807Z,1.13
2017-06-17T10:48:09.172Z,1.47
2017-06-17T10:50:38.017Z,1.23
2017-06-17T10:53:06.599Z,1.40
2017-06-17T10:55:35.285Z,1.57
2017-06-17T10:58:04.384Z,1.20
2017-06-17T11:00:32.630Z,1.73
2017-06-17T11:03:00.912Z,1.40
2017-06-17T11:05:29.549Z,1.40
2017-06-17T11:07:57.818Z,1.30
2017-06-17T11:10:26.230Z,1.20
2017-06-17T11:12:54.511Z,1.23
2017-06-17T11:15:22.993Z,1.50
2017-06-17T11:17:52.391Z,1.30
2017-06-17T11:20:21.144Z,1.40
2017-06-17T11:22:49.428Z,1.20
2017-06-17T11:25:17.679Z,1.43
2017-06-17T11:27:45.955Z,1.40
2017-06-17T11:30:14.846Z,1.60
2017-06-17T11:32:43.855Z,1.63
2017-06-17T11:35:12.131Z,1.90
2017-06-17T11:37:40.401Z,1.80
2017-06-17T11:40:09.775Z,2.20
2017-06-17T11:42:38.059Z,2.50
2017-06-17T11:45:06.103Z,2.13
2017-06-17T11:47:34.619Z,2.60
2017-06-17T11:50:02.902Z,2.90
2017-06-17T11:52:31.143Z,2.40
2017-06-17T11:55:00.029Z,2.40
2017-06-17T11:57:28.409Z,2.43
2017-06-17T11:59:56.731Z,2.20
2017-06-17T12:02:26.024Z,2.33
2017-06-17T12:04:55.119Z,2.37
2017-06-17T12:07:23.428Z,2.47
2017-06-17T12:09:51.739Z,2.40
2017-06-17T12:12:20.039Z,2.50
2017-06-17T12:14:48.279Z,2.30
2017-06-17T12:17:16.766Z,2.70
2017-06-17T12:19:45.229Z,2.57
2017-06-17T12:22:13.772Z,2.60
2017-06-17T12:24:42.064Z,2.47
2017-06-17T12:27:10.331Z,2.57
2017-06-17T12:29:38.639Z,2.10
2017-06-17T12:32:06.883Z,2.10
2017-06-17T12:34:35.182Z,2.23
2017-06-17T12:37:03.422Z,2.20
2017-06-17T12:39:31.659Z,2.30
2017-06-17T12:41:59.934Z,2.30
2017-06-17T12:44:28.175Z,1.90
2017-06-17T12:46:57.389Z,2.10
2017-06-17T12:49:25.687Z,2.20
2017-06-17T12:51:53.970Z,2.17
2017-06-17T12:54:22.974Z,2.10
2017-06-17T12:56:51.243Z,2.10
2017-06-17T12:59:19.486Z,2.07
2017-06-17T13:01:47.979Z,2.10
2017-06-17T13:04:16.259Z,2.30
2017-06-17T13:06:44.612Z,2.10
2017-06-17T13:09:12.870Z,2.10
2017-06-17T13:11:41.131Z,2.00
2017-06-17T13:14:09.479Z,2.07
2017-06-17T13:16:38.547Z,1.67
2017-06-17T13:19:06.812Z,1.60
2017-06-17T13:21:35.051Z,1.67
2017-06-17T13:24:03.290Z,2.27
2017-06-17T13:26:32.322Z,1.90
2017-06-17T13:29:00.572Z,1.63
2017-06-17T13:31:28.794Z,2.00
2017-06-17T13:33:57.064Z,1.77
2017-06-17T13:36:25.307Z,1.70
2017-06-17T13:38:54.319Z,1.73
2017-06-17T13:41:22.579Z,1.70
2017-06-17T13:43:52.726Z,1.67
2017-06-17T13:46:20.987Z,1.70
2017-06-17T13:48:49.258Z,1.70
2017-06-17T13:51:18.264Z,1.70
2017-06-17T13:53:46.498Z,1.50
2017-06-17T13:56:15.527Z,1.50
2017-06-17T13:58:43.767Z,1.80
2017-06-17T14:01:11.998Z,1.60
2017-06-17T14:03:41.042Z,1.50
2017-06-17T14:06:09.283Z,1.50
2017-06-17T14:08:37.526Z,1.47
2017-06-17T14:11:05.796Z,1.50
2017-06-17T14:13:34.034Z,1.57
2017-06-17T14:16:02.276Z,1.50
2017-06-17T14:18:31.314Z,1.40
2017-06-17T14:21:05.127Z,1.37
2017-06-17T14:23:34.159Z,1.37
2017-06-17T14:26:02.403Z,1.60
2017-06-17T14:28:30.642Z,1.43
2017-06-17T14:30:58.920Z,1.40
2017-06-17T14:33:27.159Z,1.37
2017-06-17T14:35:56.164Z,1.43
2017-06-17T14:38:24.427Z,1.40
2017-06-17T14:40:52.675Z,1.50
2017-06-17T14:43:20.912Z,1.30
2017-06-17T14:45:49.943Z,1.37
2017-06-17T14:48:18.183Z,1.33
2017-06-17T14:50:46.422Z,1.60
2017-06-17T14:53:14.692Z,1.20
2017-06-17T14:55:42.931Z,1.40
2017-06-17T14:58:11.170Z,1.43
2017-06-17T15:00:40.211Z,1.23
2017-06-17T15:03:08.452Z,1.47
2017-06-17T15:05:36.695Z,1.40
2017-06-17T15:08:04.963Z,1.37
2017-06-17T15:10:33.194Z,1.30
2017-06-17T15:13:02.204Z,1.23
2017-06-17T15:15:30.480Z,1.30
2017-06-17T15:17:58.723Z,1.50
2017-06-17T15:20:26.771Z,1.37
2017-06-17T15:22:55.043Z,1.20
2017-06-17T15:25:23.283Z,1.40
2017-06-17T15:27:51.518Z,1.30
2017-06-17T15:30:20.556Z,1.20
2017-06-17T15:32:48.786Z,1.10
2017-06-17T15:35:17.033Z,1.40
2017-06-17T15:37:45.312Z,1.13
2017-06-17T15:40:14.051Z,1.50
2017-06-17T15:42:43.063Z,1.30
2017-06-17T15:45:11.334Z,1.40
2017-06-17T15:47:39.570Z,1.30
2017-06-17T15:50:07.806Z,1.30
2017-06-17T15:52:36.842Z,1.30
2017-06-17T15:55:05.083Z,1.13
2017-06-17T15:57:33.314Z,1.23
2017-06-17T16:00:01.643Z,1.17
2017-06-17T16:02:29.878Z,1.20
2017-06-17T16:04:58.107Z,1.13
2017-06-17T16:07:26.375Z,1.30
2017-06-17T16:09:54.610Z,1.20
2017-06-17T16:12:22.855Z,1.27
2017-06-17T16:14:51.882Z,1.50
2017-06-17T16:17:20.122Z,1.30
2017-06-17T16:19:48.359Z,1.40
2017-06-17T16:22:16.635Z,1.40
2017-06-17T16:24:44.875Z,1.20
2017-06-17T16:27:13.902Z,1.20
2017-06-17T16:29:42.177Z,1.40
2017-06-17T16:32:10.410Z,1.20
2017-06-17T16:34:38.656Z,1.30
2017-06-17T16:37:06.926Z,1.00
2017-06-17T16:39:35.167Z,1.40
2017-06-17T16:42:03.408Z,1.20
2017-06-17T16:44:32.447Z,1.30
2017-06-17T16:47:00.683Z,1.27
2017-06-17T16:49:28.929Z,1.30
2017-06-17T16:51:57.221Z,1.30
2017-06-17T16:54:25.457Z,1.20
2017-06-17T16:56:53.695Z,1.20
2017-06-17T16:59:21.959Z,1.20
2017-06-17T17:01:50.199Z,1.40
2017-06-17T17:04:19.210Z,1.17
2017-06-17T17:06:47.494Z,1.10
2017-06-17T17:09:15.741Z,1.10
2017-06-17T17:11:43.982Z,1.10
2017-06-17T17:14:12.251Z,1.30
2017-06-17T17:16:40.486Z,1.40
2017-06-17T17:19:08.727Z,1.30
2017-06-17T17:21:37.767Z,1.40
2017-06-17T17:24:05.999Z,1.30
2017-06-17T17:26:34.242Z,1.30
2017-06-17T17:29:02.511Z,1.60
2017-06-17T17:31:30.746Z,1.50
2017-06-17T17:33:59.747Z,1.40
2017-06-17T17:36:28.011Z,1.50
2017-06-17T17:38:56.248Z,1.30
2017-06-17T17:41:24.494Z,1.50
2017-06-17T17:43:53.526Z,1.60
2017-06-17T17:46:21.770Z,1.40
2017-06-17T17:48:50.002Z,1.53
2017-06-17T17:51:18.271Z,1.50
2017-06-17T17:53:46.506Z,1.60
2017-06-17T17:56:15.520Z,1.30
2017-06-17T17:58:43.786Z,1.50
2017-06-17T18:01:12.029Z,1.40
2017-06-17T18:03:40.266Z,1.90
2017-06-17T18:06:09.298Z,2.30
2017-06-17T18:08:37.537Z,1.80
2017-06-17T18:11:05.777Z,3.30
2017-06-17T18:13:34.051Z,2.97
2017-06-17T18:16:02.287Z,2.90
2017-06-17T18:18:31.300Z,3.00
2017-06-17T18:20:59.572Z,2.80
2017-06-17T18:23:27.807Z,2.60
2017-06-17T18:25:56.047Z,2.53
2017-06-17T18:28:24.313Z,2.80
2017-06-17T18:30:52.551Z,2.60
2017-06-17T18:33:21.550Z,3.00
2017-06-17T18:35:49.951Z,2.47
2017-06-17T18:38:18.182Z,2.63
2017-06-17T18:40:46.419Z,2.00
2017-06-17T18:43:15.451Z,2.00
2017-06-17T18:45:43.690Z,1.83
2017-06-17T18:48:11.927Z,1.90
2017-06-17T18:50:40.194Z,2.30
2017-06-17T18:53:08.427Z,2.20
2017-06-17T18:55:37.426Z,2.30
2017-06-17T18:58:05.699Z,1.97
2017-06-17T19:00:33.939Z,2.30
2017-06-17T19:03:02.174Z,2.40
2017-06-17T19:05:31.326Z,2.27
2017-06-17T19:07:59.552Z,2.10
2017-06-17T19:10:27.787Z,2.10
2017-06-17T19:12:56.054Z,2.37
2017-06-17T19:15:24.292Z,2.00
2017-06-17T19:17:53.375Z,2.10
2017-06-17T19:20:22.412Z,2.07
2017-06-17T19:22:50.647Z,2.10
2017-06-17T19:25:18.891Z,2.20
2017-06-17T19:27:47.158Z,2.23
2017-06-17T19:30:15.401Z,2.00
2017-06-17T19:32:44.402Z,2.67
2017-06-17T19:35:12.715Z,3.00
2017-06-17T19:37:40.951Z,3.10
2017-06-17T19:40:09.187Z,3.00
2017-06-17T19:42:37.467Z,2.80
2017-06-17T19:45:05.706Z,3.67
2017-06-17T19:47:33.948Z,3.00
2017-06-17T19:50:02.207Z,2.73
2017-06-17T19:52:30.442Z,3.10
2017-06-17T19:54:59.447Z,3.50
2017-06-17T19:57:27.711Z,3.13
2017-06-17T19:59:55.950Z,2.93
2017-06-17T20:02:24.186Z,2.97
2017-06-17T20:04:52.459Z,2.83
2017-06-17T20:07:21.459Z,3.20
2017-06-17T20:09:49.745Z,3.00
2017-06-17T20:12:17.814Z,3.43
2017-06-17T20:14:46.056Z,3.40
2017-06-17T20:17:14.310Z,4.00
2017-06-17T20:19:42.579Z,3.90
2017-06-17T20:22:29.407Z,4.60
2017-06-17T20:24:57.679Z,4.10
2017-06-17T20:27:26.679Z,4.47
2017-06-17T20:29:54.917Z,4.20
2017-06-17T20:32:23.947Z,4.40
2017-06-17T20:34:52.184Z,4.50
2017-06-17T20:37:20.423Z,4.80
2017-06-17T20:39:48.682Z,4.60
2017-06-17T20:42:16.922Z,4.20
2017-06-17T20:44:45.939Z,4.53
2017-06-17T20:47:14.220Z,4.13
2017-06-17T20:49:42.451Z,4.57
2017-06-17T20:52:10.691Z,4.00
2017-06-17T20:54:39.718Z,4.17
2017-06-17T20:57:07.776Z,4.53
2017-06-17T20:59:36.031Z,4.17
2017-06-17T21:02:04.975Z,4.33
2017-06-17T21:04:33.210Z,4.60
2017-06-17T21:07:02.215Z,4.77
2017-06-17T21:09:30.491Z,4.13
2017-06-17T21:11:58.730Z,4.03
2017-06-17T21:14:26.971Z,3.93
2017-06-17T21:16:56.003Z,4.10
2017-06-17T21:19:24.234Z,3.80
2017-06-17T21:21:52.475Z,3.80
2017-06-17T21:24:20.743Z,4.67
2017-06-17T21:26:48.976Z,3.90
2017-06-17T21:29:17.978Z,3.67
2017-06-17T21:31:46.255Z,4.00
2017-06-17T21:34:14.486Z,3.83
2017-06-17T21:36:43.496Z,3.70
2017-06-17T21:39:11.759Z,3.50
2017-06-17T21:41:40.003Z,3.60
2017-06-17T21:44:08.245Z,3.80
2017-06-17T21:46:36.507Z,3.70
2017-06-17T21:49:04.746Z,3.20
2017-06-17T21:51:33.850Z,3.60
2017-06-17T21:54:02.123Z,3.60
2017-06-17T21:56:30.367Z,3.60
2017-06-17T21:58:58.603Z,3.20
2017-06-17T22:01:27.637Z,3.10
2017-06-17T22:03:55.867Z,3.70
2017-06-17T22:06:24.109Z,3.33
2017-06-17T22:08:53.138Z,3.30
2017-06-17T22:11:21.377Z,3.83
2017-06-17T22:13:49.617Z,3.03
2017-06-17T22:16:17.890Z,3.40
2017-06-17T22:18:46.131Z,3.10
2017-06-17T22:21:14.370Z,3.10
2017-06-17T22:23:43.410Z,2.77
2017-06-17T22:26:11.649Z,3.30
2017-06-17T22:28:39.886Z,3.00
2017-06-17T22:31:08.151Z,2.77
2017-06-17T22:33:36.387Z,3.20
2017-06-17T22:36:05.203Z,2.80
2017-06-17T22:38:33.478Z,2.50
2017-06-17T22:41:01.716Z,3.13
2017-06-17T22:43:29.956Z,4.87
2017-06-17T22:45:58.228Z,4.83
2017-06-17T22:48:26.473Z,5.40
2017-06-17T22:50:54.714Z,5.40
2017-06-17T22:53:22.974Z,5.30
2017-06-17T22:55:51.978Z,5.03
2017-06-17T22:58:20.223Z,4.70
2017-06-17T23:00:48.499Z,4.83
2017-06-17T23:03:16.745Z,5.40
2017-06-17T23:05:44.982Z,5.03
2017-06-17T23:08:13.250Z,5.23
2017-06-17T23:10:42.250Z,5.10
2017-06-17T23:13:10.499Z,4.87
2017-06-17T23:15:39.531Z,4.50
2017-06-17T23:18:07.771Z,5.00
2017-06-17T23:20:36.012Z,5.90
2017-06-17T23:23:04.287Z,5.97
2017-06-17T23:25:32.518Z,5.07
2017-06-17T23:28:00.758Z,5.03
2017-06-17T23:30:29.791Z,4.70
2017-06-17T23:32:58.039Z,4.50
2017-06-17T23:35:26.285Z,4.80
2017-06-17T23:37:54.553Z,4.30
2017-06-17T23:40:22.791Z,4.50
2017-06-17T23:42:51.090Z,4.53
2017-06-17T23:45:19.391Z,4.53
2017-06-17T23:47:48.390Z,4.40
2017-06-17T23:50:16.627Z,4.43
2017-06-17T23:52:45.667Z,3.80
2017-06-17T23:55:13.909Z,4.30
2017-06-17T23:57:42.147Z,4.37
